createdAt,value
2019-02-25T00:00:49.168Z,14.03
2019-02-25T00:03:17.731Z,14.00
2019-02-25T00:05:49.629Z,13.17
2019-02-25T00:08:18.134Z,15.10
2019-02-25T00:10:46.584Z,12.80
2019-02-25T00:13:15.133Z,14.33
2019-02-25T00:15:43.646Z,13.67
2019-02-25T00:18:12.120Z,15.93
2019-02-25T00:20:40.573Z,15.87
2019-02-25T00:23:09.060Z,13.67
2019-02-25T00:25:37.521Z,13.83
2019-02-25T00:28:06.011Z,12.80
2019-02-25T00:30:34.438Z,13.90
2019-02-25T00:33:02.900Z,13.87
2019-02-25T00:35:31.377Z,14.30
2019-02-25T00:37:59.871Z,13.00
2019-02-25T00:40:28.325Z,16.47
2019-02-25T00:42:56.792Z,14.03
2019-02-25T00:45:25.372Z,15.93
2019-02-25T00:47:53.762Z,14.13
2019-02-25T00:50:22.275Z,13.07
2019-02-25T00:52:50.827Z,12.93
2019-02-25T00:55:19.289Z,14.80
2019-02-25T00:57:47.744Z,12.63
2019-02-25T01:00:16.221Z,13.67
2019-02-25T01:02:44.719Z,13.93
2019-02-25T01:05:13.560Z,14.83
2019-02-25T01:07:42.078Z,15.07
2019-02-25T01:10:10.688Z,14.73
2019-02-25T01:12:39.122Z,15.57
2019-02-25T01:15:07.777Z,17.13
2019-02-25T01:17:36.176Z,16.13
2019-02-25T01:20:04.669Z,17.80
2019-02-25T01:22:33.060Z,18.17
2019-02-25T01:25:01.556Z,14.90
2019-02-25T01:27:30.011Z,18.17
2019-02-25T01:29:58.469Z,13.23
2019-02-25T01:32:26.978Z,16.47
2019-02-25T01:34:55.448Z,17.17
2019-02-25T01:37:23.912Z,15.30
2019-02-25T01:39:52.328Z,17.07
2019-02-25T01:42:20.812Z,16.13
2019-02-25T01:44:49.438Z,18.53
2019-02-25T01:47:17.884Z,17.07
2019-02-25T01:49:46.319Z,19.13
2019-02-25T01:52:34.003Z,16.87
2019-02-25T01:55:02.353Z,18.57
2019-02-25T01:57:30.700Z,21.37
2019-02-25T01:59:59.180Z,21.47
2019-02-25T02:02:27.519Z,19.60
2019-02-25T02:04:55.972Z,23.73
2019-02-25T02:07:24.348Z,22.30
2019-02-25T02:09:52.715Z,20.27
2019-02-25T02:12:21.107Z,24.00
2019-02-25T02:14:49.479Z,26.17
2019-02-25T02:17:17.853Z,21.03
2019-02-25T02:19:48.923Z,21.23
2019-02-25T02:22:17.307Z,20.33
2019-02-25T02:24:45.735Z,21.43
2019-02-25T02:27:14.215Z,22.23
2019-02-25T02:29:42.740Z,23.87
2019-02-25T02:32:11.204Z,19.47
2019-02-25T02:34:39.651Z,20.13
2019-02-25T02:37:08.027Z,20.03
2019-02-25T02:39:36.392Z,19.90
2019-02-25T02:42:11.834Z,17.53
2019-02-25T02:44:40.407Z,18.60
2019-02-25T02:47:28.265Z,19.07
2019-02-25T02:49:56.698Z,20.40
2019-02-25T02:52:25.163Z,21.17
2019-02-25T02:54:53.729Z,24.43
2019-02-25T02:57:22.159Z,18.10
2019-02-25T02:59:50.550Z,18.73
2019-02-25T03:02:19.008Z,20.83
2019-02-25T03:04:47.570Z,21.53
2019-02-25T03:07:15.924Z,19.50
2019-02-25T03:09:44.295Z,19.00
2019-02-25T03:12:12.712Z,19.40
2019-02-25T03:14:41.217Z,25.03
2019-02-25T03:17:09.565Z,18.97
2019-02-25T03:19:38.040Z,23.30
2019-02-25T03:22:06.558Z,24.03
2019-02-25T03:24:35.014Z,22.80
2019-02-25T03:27:03.444Z,19.30
2019-02-25T03:29:31.835Z,17.00
2019-02-25T03:32:00.218Z,16.57
2019-02-25T03:34:28.546Z,19.50
2019-02-25T03:36:56.985Z,19.53
2019-02-25T03:39:25.416Z,21.53
2019-02-25T03:41:53.855Z,18.97
2019-02-25T03:44:22.343Z,22.40
2019-02-25T03:46:50.796Z,20.43
2019-02-25T03:49:19.151Z,17.17
2019-02-25T03:51:47.533Z,18.70
2019-02-25T03:54:15.912Z,21.67
2019-02-25T03:56:44.359Z,19.17
2019-02-25T03:59:12.808Z,21.07
2019-02-25T04:01:41.271Z,19.13
2019-02-25T04:04:09.819Z,22.03
2019-02-25T04:06:38.303Z,20.03
2019-02-25T04:09:07.456Z,18.77
2019-02-25T04:11:35.783Z,23.60
2019-02-25T04:14:04.324Z,17.83
2019-02-25T04:16:32.999Z,21.23
2019-02-25T04:19:01.473Z,19.23
2019-02-25T04:21:30.323Z,18.37
2019-02-25T04:23:58.687Z,19.70
2019-02-25T04:26:27.165Z,19.10
2019-02-25T04:28:55.525Z,20.13
2019-02-25T04:31:23.906Z,18.60
2019-02-25T04:33:52.271Z,19.77
2019-02-25T04:36:20.627Z,17.83
2019-02-25T04:38:49.064Z,18.63
2019-02-25T04:41:17.416Z,19.90
2019-02-25T04:43:45.788Z,21.40
2019-02-25T04:46:14.158Z,16.80
2019-02-25T04:48:42.604Z,19.10
2019-02-25T04:51:11.043Z,18.93
2019-02-25T04:53:39.391Z,19.90
2019-02-25T04:56:08.331Z,20.70
2019-02-25T04:58:36.871Z,22.50
2019-02-25T05:01:05.288Z,17.67
2019-02-25T05:03:33.863Z,19.97
2019-02-25T05:06:02.256Z,18.53
2019-02-25T05:08:30.723Z,17.70
2019-02-25T05:10:59.076Z,19.20
2019-02-25T05:13:27.411Z,18.37
2019-02-25T05:15:55.751Z,19.53
2019-02-25T05:18:24.116Z,18.53
2019-02-25T05:20:52.648Z,18.60
2019-02-25T05:23:21.040Z,18.80
2019-02-25T05:25:49.505Z,19.83
2019-02-25T05:28:17.941Z,20.00
2019-02-25T05:30:46.309Z,22.07
2019-02-25T05:33:14.809Z,19.33
2019-02-25T05:35:43.163Z,18.37
2019-02-25T05:38:11.636Z,17.10
2019-02-25T05:40:40.088Z,20.75
2019-02-25T05:43:08.580Z,19.27
2019-02-25T05:45:36.948Z,18.57
2019-02-25T05:48:05.397Z,21.23
2019-02-25T05:50:33.835Z,19.30
2019-02-25T05:53:02.327Z,21.77
2019-02-25T05:55:30.719Z,16.03
2019-02-25T05:57:59.144Z,19.60
2019-02-25T06:00:28.227Z,18.43
2019-02-25T06:02:56.700Z,16.23
2019-02-25T06:05:25.186Z,18.47
2019-02-25T06:07:53.553Z,14.83
2019-02-25T06:10:21.963Z,18.23
2019-02-25T06:12:50.329Z,14.57
2019-02-25T06:15:18.782Z,22.50
2019-02-25T06:17:47.587Z,15.73
2019-02-25T06:20:16.118Z,18.53
2019-02-25T06:22:44.564Z,18.30
2019-02-25T06:25:13.152Z,16.60
2019-02-25T06:27:41.659Z,16.37
2019-02-25T06:30:11.544Z,15.70
2019-02-25T06:32:39.923Z,14.63
2019-02-25T06:35:08.400Z,15.50
2019-02-25T06:37:36.797Z,17.40
2019-02-25T06:40:05.573Z,13.47
2019-02-25T06:42:34.017Z,17.07
2019-02-25T06:45:02.464Z,25.17
2019-02-25T06:47:31.049Z,18.80
2019-02-25T06:49:59.424Z,19.50
2019-02-25T06:52:27.872Z,17.07
2019-02-25T06:54:56.256Z,17.97
2019-02-25T06:57:24.698Z,18.20
2019-02-25T06:59:53.195Z,22.10
2019-02-25T07:02:21.624Z,18.40
2019-02-25T07:04:55.847Z,16.27
2019-02-25T07:07:42.436Z,16.50
2019-02-25T07:10:33.057Z,19.67
2019-02-25T07:13:09.647Z,15.90
2019-02-25T07:15:49.787Z,17.73
2019-02-25T07:18:25.547Z,18.17
2019-02-25T07:21:11.919Z,19.00
2019-02-25T07:24:05.605Z,16.87
2019-02-25T07:27:02.242Z,22.20
2019-02-25T07:29:40.025Z,19.60
2019-02-25T07:32:18.846Z,20.67
2019-02-25T07:34:53.573Z,20.10
2019-02-25T07:37:44.592Z,22.00
2019-02-25T07:40:20.172Z,20.43
2019-02-25T07:42:59.571Z,22.40
2019-02-25T07:45:40.983Z,16.87
2019-02-25T07:48:20.601Z,19.00
2019-02-25T07:51:11.007Z,21.23
2019-02-25T07:53:52.545Z,19.50
2019-02-25T07:56:35.155Z,15.57
2019-02-25T07:59:10.075Z,14.20
2019-02-25T08:02:15.915Z,14.53
2019-02-25T08:05:03.545Z,16.97
2019-02-25T08:07:47.567Z,14.10
2019-02-25T08:10:25.047Z,14.03
2019-02-25T08:13:27.795Z,14.03
2019-02-25T08:16:14.300Z,14.37
2019-02-25T08:19:10.734Z,14.73
2019-02-25T08:21:58.327Z,17.47
2019-02-25T08:24:41.318Z,17.13
2019-02-25T08:27:16.157Z,20.70
2019-02-25T08:30:03.460Z,15.00
2019-02-25T08:32:47.502Z,17.33
2019-02-25T08:35:34.862Z,14.53
2019-02-25T08:38:20.935Z,16.17
2019-02-25T08:41:12.131Z,14.27
2019-02-25T08:43:48.823Z,16.27
2019-02-25T08:46:31.388Z,19.50
2019-02-25T08:49:15.797Z,16.47
2019-02-25T08:51:44.300Z,15.93
2019-02-25T08:54:12.776Z,16.27
2019-02-25T08:56:41.378Z,18.13
2019-02-25T08:59:09.951Z,14.70
2019-02-25T09:01:38.527Z,18.93
2019-02-25T09:04:07.016Z,15.00
2019-02-25T09:06:35.435Z,15.17
2019-02-25T09:09:04.870Z,16.70
2019-02-25T09:11:33.387Z,16.33
2019-02-25T09:14:01.943Z,16.33
2019-02-25T09:16:30.528Z,12.53
2019-02-25T09:18:59.075Z,15.10
2019-02-25T09:21:31.827Z,15.80
2019-02-25T09:23:57.684Z,13.10
2019-02-25T09:26:26.094Z,13.50
2019-02-25T09:28:54.513Z,14.70
2019-02-25T09:31:23.020Z,14.63
2019-02-25T09:33:51.636Z,13.47
2019-02-25T09:36:20.025Z,15.93
2019-02-25T09:38:48.528Z,13.00
2019-02-25T09:41:16.973Z,10.90
2019-02-25T09:43:45.403Z,11.57
2019-02-25T09:46:13.928Z,12.83
2019-02-25T09:48:42.484Z,12.03
2019-02-25T09:51:11.402Z,10.80
2019-02-25T09:53:40.138Z,14.53
2019-02-25T09:56:08.682Z,12.07
2019-02-25T09:58:37.167Z,13.00
2019-02-25T10:01:05.687Z,12.43
2019-02-25T10:03:34.282Z,12.73
2019-02-25T10:06:02.774Z,9.23
2019-02-25T10:08:31.191Z,12.97
2019-02-25T10:10:59.727Z,10.10
2019-02-25T10:13:28.228Z,13.73
2019-02-25T10:15:56.715Z,11.43
2019-02-25T10:18:25.139Z,9.83
2019-02-25T10:20:53.704Z,10.43
2019-02-25T10:23:22.234Z,9.80
2019-02-25T10:25:50.735Z,11.00
2019-02-25T10:28:19.241Z,10.87
2019-02-25T10:30:52.935Z,11.30
2019-02-25T10:33:17.899Z,8.87
2019-02-25T10:35:46.303Z,9.70
2019-02-25T10:38:14.762Z,9.17
2019-02-25T10:40:44.973Z,9.93
2019-02-25T10:43:13.571Z,8.53
2019-02-25T10:45:43.405Z,11.00
2019-02-25T10:48:12.205Z,13.37
2019-02-25T10:50:40.979Z,10.67
2019-02-25T10:53:10.907Z,10.77
2019-02-25T10:55:45.053Z,14.23
2019-02-25T10:58:12.263Z,11.37
2019-02-25T11:00:41.728Z,10.00
2019-02-25T11:03:12.875Z,13.80
2019-02-25T11:05:41.275Z,9.20
2019-02-25T11:08:13.733Z,11.03
2019-02-25T11:10:57.299Z,9.77
2019-02-25T11:13:27.442Z,9.40
2019-02-25T11:15:55.969Z,12.30
2019-02-25T11:18:26.682Z,13.20
2019-02-25T11:20:54.718Z,11.67
2019-02-25T11:23:23.161Z,11.43
2019-02-25T11:25:53.546Z,13.77
2019-02-25T11:28:25.909Z,10.57
2019-02-25T11:30:53.769Z,12.10
2019-02-25T11:33:23.217Z,11.03
2019-02-25T11:35:52.658Z,9.87
2019-02-25T11:38:21.145Z,11.40
2019-02-25T11:40:49.608Z,8.47
2019-02-25T11:43:18.922Z,9.77
2019-02-25T11:45:48.572Z,10.37
2019-02-25T11:48:16.987Z,10.30
2019-02-25T11:50:45.543Z,9.70
2019-02-25T11:53:14.067Z,10.00
2019-02-25T11:55:42.550Z,9.30
2019-02-25T11:58:10.945Z,7.67
2019-02-25T12:00:39.926Z,8.90
2019-02-25T12:03:08.435Z,9.27
2019-02-25T12:05:36.903Z,9.57
2019-02-25T12:08:05.475Z,10.13
2019-02-25T12:10:33.954Z,8.20
2019-02-25T12:13:02.371Z,13.23
2019-02-25T12:15:30.848Z,8.63
2019-02-25T12:17:59.382Z,7.67
2019-02-25T12:20:27.797Z,9.33
2019-02-25T12:22:56.303Z,7.30
2019-02-25T12:25:24.965Z,9.43
2019-02-25T12:27:53.459Z,10.17
2019-02-25T12:30:22.036Z,7.93
2019-02-25T12:32:50.531Z,8.27
2019-02-25T12:35:19.037Z,11.77
2019-02-25T12:37:47.631Z,6.87
2019-02-25T12:40:16.841Z,7.87
2019-02-25T12:42:45.554Z,10.43
2019-02-25T12:45:14.230Z,9.30
2019-02-25T12:47:42.760Z,11.27
2019-02-25T12:50:11.315Z,8.30
2019-02-25T12:52:39.968Z,8.30
2019-02-25T12:55:09.093Z,9.03
2019-02-25T12:57:37.616Z,9.43
2019-02-25T13:00:07.124Z,8.57
2019-02-25T13:02:35.565Z,10.37
2019-02-25T13:05:04.594Z,9.97
2019-02-25T13:07:33.089Z,9.83
2019-02-25T13:10:20.760Z,10.87
2019-02-25T13:12:51.429Z,9.33
2019-02-25T13:15:19.561Z,10.90
2019-02-25T13:17:48.185Z,11.90
2019-02-25T13:20:16.815Z,11.27
2019-02-25T13:22:45.377Z,9.83
2019-02-25T13:25:13.964Z,8.80
2019-02-25T13:27:42.517Z,11.13
2019-02-25T13:30:12.564Z,8.97
2019-02-25T13:32:41.188Z,11.20
2019-02-25T13:35:09.881Z,7.70
2019-02-25T13:37:38.387Z,8.33
2019-02-25T13:40:07.315Z,10.23
2019-02-25T13:42:35.863Z,7.83
2019-02-25T13:45:04.652Z,15.47
2019-02-25T13:47:33.356Z,7.10
2019-02-25T13:50:01.944Z,7.80
2019-02-25T13:52:30.354Z,10.53
2019-02-25T13:54:58.823Z,8.57
2019-02-25T13:57:27.341Z,8.87
2019-02-25T13:59:55.871Z,8.03
2019-02-25T14:02:24.447Z,13.60
2019-02-25T14:04:52.991Z,6.57
2019-02-25T14:07:21.666Z,6.47
2019-02-25T14:09:50.174Z,7.87
2019-02-25T14:12:18.590Z,6.77
2019-02-25T14:14:47.091Z,10.97
2019-02-25T14:17:15.667Z,8.77
2019-02-25T14:19:44.375Z,8.67
2019-02-25T14:22:14.838Z,7.27
2019-02-25T14:24:43.242Z,8.07
2019-02-25T14:27:11.916Z,8.93
2019-02-25T14:29:40.460Z,8.73
2019-02-25T14:32:10.913Z,8.40
2019-02-25T14:34:39.687Z,12.60
2019-02-25T14:37:08.940Z,8.67
2019-02-25T14:39:38.181Z,8.67
2019-02-25T14:42:09.317Z,9.00
2019-02-25T14:44:40.597Z,7.80
2019-02-25T14:47:19.680Z,10.73
2019-02-25T14:49:40.326Z,8.60
2019-02-25T14:52:09.346Z,7.17
2019-02-25T14:54:38.073Z,8.77
2019-02-25T14:57:06.568Z,8.60
2019-02-25T14:59:35.059Z,9.50
2019-02-25T15:02:04.092Z,9.37
2019-02-25T15:04:35.812Z,7.90
2019-02-25T15:07:06.217Z,9.73
2019-02-25T15:09:34.759Z,7.43
2019-02-25T15:12:06.419Z,10.37
2019-02-25T15:14:34.575Z,9.33
2019-02-25T15:17:03.852Z,9.23
2019-02-25T15:19:34.495Z,8.30
2019-02-25T15:22:03.456Z,9.37
2019-02-25T15:24:32.831Z,9.37
2019-02-25T15:27:02.460Z,8.97
2019-02-25T15:29:39.235Z,8.87
2019-02-25T15:32:07.953Z,7.63
2019-02-25T15:34:37.713Z,7.30
2019-02-25T15:37:07.178Z,9.73
2019-02-25T15:39:36.403Z,9.97
2019-02-25T15:42:04.894Z,9.97
2019-02-25T15:44:33.585Z,10.37
2019-02-25T15:47:02.550Z,11.47
2019-02-25T15:49:32.215Z,11.73
2019-02-25T15:52:00.751Z,10.20
2019-02-25T15:54:32.695Z,8.93
2019-02-25T15:56:59.501Z,9.07
2019-02-25T15:59:32.028Z,11.80
2019-02-25T16:01:58.420Z,9.00
2019-02-25T16:04:27.951Z,10.83
2019-02-25T16:06:57.611Z,8.60
2019-02-25T16:09:27.625Z,8.60
2019-02-25T16:11:58.880Z,9.37
2019-02-25T16:14:29.350Z,10.67
2019-02-25T16:16:57.972Z,11.37
2019-02-25T16:19:38.790Z,8.40
2019-02-25T16:21:58.411Z,10.50
2019-02-25T16:24:26.985Z,9.20
2019-02-25T16:26:56.261Z,9.30
2019-02-25T16:29:25.680Z,11.10
2019-02-25T16:31:55.201Z,8.70
2019-02-25T16:34:24.459Z,9.60
2019-02-25T16:36:53.773Z,12.13
2019-02-25T16:39:23.127Z,9.37
2019-02-25T16:41:51.687Z,11.00
2019-02-25T16:44:20.083Z,9.63
2019-02-25T16:46:50.629Z,10.80
2019-02-25T16:49:18.839Z,9.23
2019-02-25T16:51:47.319Z,9.80
2019-02-25T16:54:18.903Z,8.90
2019-02-25T16:56:45.999Z,10.63
2019-02-25T16:59:15.733Z,11.37
2019-02-25T17:01:45.015Z,8.60
2019-02-25T17:04:14.362Z,10.33
2019-02-25T17:06:43.682Z,10.93
2019-02-25T17:09:16.089Z,8.63
2019-02-25T17:11:46.057Z,8.63
2019-02-25T17:14:15.318Z,9.33
2019-02-25T17:16:44.975Z,9.60
2019-02-25T17:19:13.443Z,12.60
2019-02-25T17:21:43.330Z,11.23
2019-02-25T17:24:12.201Z,11.45
2019-02-25T17:26:40.784Z,11.43
2019-02-25T17:29:09.298Z,10.47
2019-02-25T17:31:38.669Z,10.00
2019-02-25T17:34:09.942Z,11.27
2019-02-25T17:36:38.335Z,10.07
2019-02-25T17:39:08.564Z,11.90
2019-02-25T17:41:37.853Z,13.33
2019-02-25T17:44:08.078Z,11.67
2019-02-25T17:46:39.111Z,11.70
2019-02-25T17:49:09.898Z,9.23
2019-02-25T17:51:38.378Z,9.57
2019-02-25T17:54:07.937Z,10.50
2019-02-25T17:56:37.063Z,14.10
2019-02-25T17:59:07.456Z,10.83
2019-02-25T18:01:36.109Z,10.60
2019-02-25T18:04:06.589Z,10.87
2019-02-25T18:06:36.278Z,9.93
2019-02-25T18:09:07.519Z,9.10
2019-02-25T18:11:36.906Z,11.20
2019-02-25T18:14:06.211Z,11.00
2019-02-25T18:16:35.356Z,10.90
2019-02-25T18:19:05.047Z,10.83
2019-02-25T18:21:34.007Z,13.33
2019-02-25T18:24:02.652Z,10.00
2019-02-25T18:26:31.508Z,13.93
2019-02-25T18:29:00.169Z,10.43
2019-02-25T18:31:28.843Z,9.97
2019-02-25T18:33:57.436Z,12.43
2019-02-25T18:36:27.017Z,11.40
2019-02-25T18:38:56.413Z,11.93
2019-02-25T18:41:25.394Z,13.03
2019-02-25T18:43:55.203Z,12.13
2019-02-25T18:46:25.109Z,11.50
2019-02-25T18:48:54.015Z,15.50
2019-02-25T18:51:24.648Z,11.23
2019-02-25T18:53:54.721Z,13.83
2019-02-25T18:56:23.321Z,14.00
2019-02-25T18:58:55.013Z,31.10
2019-02-25T19:01:22.635Z,14.90
2019-02-25T19:03:52.674Z,15.87
2019-02-25T19:06:23.106Z,17.50
2019-02-25T19:08:53.459Z,15.23
2019-02-25T19:11:23.595Z,15.17
2019-02-25T19:13:53.998Z,17.57
2019-02-25T19:16:24.320Z,15.33
2019-02-25T19:18:53.176Z,15.03
2019-02-25T19:21:23.321Z,16.90
2019-02-25T19:23:52.082Z,19.50
2019-02-25T19:26:21.917Z,17.33
2019-02-25T19:28:52.330Z,16.27
2019-02-25T19:31:20.866Z,14.83
2019-02-25T19:33:49.408Z,15.23
2019-02-25T19:36:19.170Z,14.93
2019-02-25T19:38:48.644Z,16.23
2019-02-25T19:41:19.979Z,18.77
2019-02-25T19:43:48.314Z,12.97
2019-02-25T19:46:16.988Z,16.37
2019-02-25T19:48:47.441Z,14.63
2019-02-25T19:51:15.703Z,15.30
2019-02-25T19:53:45.266Z,15.00
2019-02-25T19:56:14.423Z,14.27
2019-02-25T19:58:42.972Z,15.40
2019-02-25T20:01:11.339Z,19.10
2019-02-25T20:03:42.614Z,15.07
2019-02-25T20:06:13.784Z,16.10
2019-02-25T20:08:41.111Z,16.70
2019-02-25T20:11:10.037Z,14.73
2019-02-25T20:13:40.587Z,16.10
2019-02-25T20:16:13.298Z,16.80
2019-02-25T20:18:40.289Z,17.13
2019-02-25T20:21:09.456Z,15.20
2019-02-25T20:23:37.809Z,15.83
2019-02-25T20:26:06.267Z,15.20
2019-02-25T20:28:34.779Z,17.67
2019-02-25T20:31:03.355Z,17.17
2019-02-25T20:33:33.088Z,16.63
2019-02-25T20:36:03.311Z,20.90
2019-02-25T20:38:32.654Z,17.43
2019-02-25T20:41:02.500Z,17.87
2019-02-25T20:43:32.515Z,15.50
2019-02-25T20:46:03.273Z,19.90
2019-02-25T20:48:31.263Z,17.97
2019-02-25T20:51:02.094Z,22.20
2019-02-25T20:53:31.677Z,29.47
2019-02-25T20:56:00.423Z,24.47
2019-02-25T20:58:28.842Z,23.50
2019-02-25T21:00:57.323Z,28.20
2019-02-25T21:03:27.543Z,29.50
2019-02-25T21:05:55.937Z,32.30
2019-02-25T21:08:24.397Z,34.23
2019-02-25T21:10:52.947Z,30.13
2019-02-25T21:13:22.065Z,28.30
2019-02-25T21:15:51.445Z,23.80
2019-02-25T21:18:20.402Z,18.00
2019-02-25T21:20:51.519Z,22.67
2019-02-25T21:23:20.140Z,18.33
2019-02-25T21:25:53.478Z,18.63
2019-02-25T21:28:20.989Z,20.27
2019-02-25T21:30:50.738Z,19.50
2019-02-25T21:33:19.870Z,20.00
2019-02-25T21:35:49.315Z,22.97
2019-02-25T21:38:19.442Z,19.90
2019-02-25T21:40:48.435Z,19.53
2019-02-25T21:43:18.777Z,20.67
2019-02-25T21:45:49.987Z,20.43
2019-02-25T21:48:21.154Z,20.80
2019-02-25T21:50:48.526Z,22.63
2019-02-25T21:53:18.392Z,18.07
2019-02-25T21:55:46.807Z,20.00
2019-02-25T21:58:18.024Z,18.17
2019-02-25T22:00:45.377Z,21.40
2019-02-25T22:03:15.693Z,18.33
2019-02-25T22:05:44.101Z,20.47
2019-02-25T22:08:12.640Z,17.87
2019-02-25T22:10:42.026Z,19.40
2019-02-25T22:13:13.580Z,18.73
2019-02-25T22:15:42.992Z,20.90
2019-02-25T22:18:13.896Z,18.27
2019-02-25T22:20:42.761Z,22.33
2019-02-25T22:23:11.872Z,21.00
2019-02-25T22:25:40.314Z,20.80
2019-02-25T22:28:09.958Z,25.20
2019-02-25T22:30:38.451Z,20.47
2019-02-25T22:33:09.429Z,18.63
2019-02-25T22:35:38.076Z,21.70
2019-02-25T22:38:07.199Z,23.27
2019-02-25T22:40:36.748Z,19.77
2019-02-25T22:43:05.736Z,21.47
2019-02-25T22:45:35.932Z,21.20
2019-02-25T22:48:04.272Z,25.27
2019-02-25T22:50:33.886Z,23.97
2019-02-25T22:53:04.259Z,23.50
2019-02-25T22:55:36.822Z,22.40
2019-02-25T22:58:03.357Z,22.93
2019-02-25T23:00:42.948Z,22.20
2019-02-25T23:03:15.299Z,22.37
2019-02-25T23:05:43.622Z,24.57
2019-02-25T23:08:13.178Z,23.87
2019-02-25T23:10:42.530Z,24.40
2019-02-25T23:13:12.091Z,22.73
2019-02-25T23:15:42.163Z,22.07
2019-02-25T23:18:13.905Z,21.33
2019-02-25T23:20:40.696Z,23.27
2019-02-25T23:23:09.139Z,21.20
2019-02-25T23:25:37.515Z,20.47
2019-02-25T23:28:06.066Z,22.77
2019-02-25T23:30:34.463Z,22.00
2019-02-25T23:33:02.891Z,26.47
2019-02-25T23:35:31.363Z,23.33
2019-02-25T23:38:00.989Z,21.23
2019-02-25T23:40:33.331Z,22.67
2019-02-25T23:43:03.000Z,21.93
2019-02-25T23:45:30.195Z,25.63
2019-02-25T23:47:59.790Z,20.90
2019-02-25T23:50:29.757Z,24.20
2019-02-25T23:52:58.979Z,20.03
2019-02-25T23:55:29.580Z,20.93
2019-02-25T23:57:57.611Z,22.20
